Time;durP1;ratioP1;P1;durP2;ratioP2;P2;SDS_P1;SDS_P2;PMS_P1;PMS_P2;Temp;Humidity;BMP_temperature;BMP_pressure;BME280_temperature;BME280_humidity;BME280_pressure;Samples;Min_cycle;Max_cycle;Signal;HPM_P1;HPM_P2
2021/05/11 00:02:10;;;;;;;6.97;5.43;;;11.10;99.90;;;;;;6216137;23;20055;-91
2021/05/11 00:04:36;;;;;;;6.43;4.88;;;11.00;99.90;;;;;;6217956;23;20419;-92
2021/05/11 00:07:02;;;;;;;5.90;4.97;;;11.00;99.90;;;;;;6217981;23;20090;-90
2021/05/11 00:09:31;;;;;;;11.00;6.00;;;11.00;99.90;;;;;;6218738;23;20059;-91
2021/05/11 00:11:57;;;;;;;6.60;5.60;;;11.00;99.90;;;;;;6217698;23;20096;-91
2021/05/11 00:14:24;;;;;;;10.43;5.45;;;11.00;99.90;;;;;;6218945;23;20020;-92
2021/05/11 00:16:50;;;;;;;6.00;4.85;;;10.90;99.90;;;;;;6218784;23;20427;-91
2021/05/11 00:19:18;;;;;;;4.82;4.32;;;10.90;99.90;;;;;;6220019;23;20017;-90
2021/05/11 00:21:44;;;;;;;6.22;4.05;;;10.90;99.90;;;;;;6217726;23;20056;-91
2021/05/11 00:24:12;;;;;;;5.20;4.13;;;10.90;99.90;;;;;;6218686;23;20334;-91
2021/05/11 00:26:41;;;;;;;3.83;3.40;;;10.90;99.90;;;;;;6218324;23;20028;-92
2021/05/11 00:29:07;;;;;;;3.80;3.40;;;10.90;99.90;;;;;;6227362;23;20024;-90
2021/05/11 00:31:36;;;;;;;3.42;3.13;;;10.90;99.90;;;;;;6229825;23;20021;-92
2021/05/11 00:34:03;;;;;;;5.10;3.30;;;10.90;99.90;;;;;;6227328;23;20034;-90
2021/05/11 00:36:29;;;;;;;5.60;2.75;;;10.90;99.90;;;;;;6226247;23;20079;-91
2021/05/11 00:38:57;;;;;;;3.88;2.88;;;10.90;99.90;;;;;;6226490;23;20048;-90
2021/05/11 00:41:24;;;;;;;3.65;2.72;;;10.90;99.90;;;;;;6226399;23;20025;-89
2021/05/11 00:43:50;;;;;;;4.05;3.45;;;10.90;99.90;;;;;;6224918;23;20025;-91
2021/05/11 00:46:18;;;;;;;3.92;3.28;;;10.90;99.90;;;;;;6220778;23;20082;-91
2021/05/11 00:48:47;;;;;;;5.03;3.53;;;10.90;99.90;;;;;;6216909;23;20035;-90
2021/05/11 00:51:19;;;;;;;3.33;3.03;;;10.90;99.90;;;;;;6215650;23;20103;-90
2021/05/11 00:53:48;;;;;;;4.20;3.72;;;10.90;99.90;;;;;;6217326;23;20059;-91
2021/05/11 00:56:16;;;;;;;4.03;3.55;;;10.90;99.90;;;;;;6217006;23;20092;-90
2021/05/11 00:58:50;;;;;;;4.13;3.67;;;10.90;99.90;;;;;;6216960;23;20021;-90
2021/05/11 01:01:17;;;;;;;4.38;3.97;;;11.00;99.90;;;;;;6216833;23;20048;-91
2021/05/11 01:03:45;;;;;;;5.20;4.30;;;11.00;99.90;;;;;;6215291;23;20108;-91
2021/05/11 01:06:11;;;;;;;6.60;4.47;;;11.00;99.90;;;;;;6217368;23;20104;-91
2021/05/11 01:08:38;;;;;;;4.85;4.35;;;11.00;99.90;;;;;;6218671;23;20443;-91
2021/05/11 01:11:04;;;;;;;4.68;4.18;;;11.00;99.90;;;;;;6191662;23;20017;-91
2021/05/11 01:13:31;;;;;;;7.60;5.97;;;11.00;99.90;;;;;;6216466;23;20096;-90
2021/05/11 01:15:57;;;;;;;9.77;7.95;;;11.00;99.90;;;;;;6216669;23;20351;-90
2021/05/11 01:18:27;;;;;;;11.13;7.93;;;11.00;99.90;;;;;;6215196;23;20069;-90
2021/05/11 01:20:58;;;;;;;10.65;8.68;;;11.00;99.90;;;;;;6214968;23;20063;-91
2021/05/11 01:24:14;;;;;;;9.90;8.55;;;11.00;99.90;;;;;;6215875;23;20055;-90
2021/05/11 01:26:25;;;;;;;8.60;7.00;;;11.00;99.90;;;;;;6205787;23;20096;-90
2021/05/11 01:29:01;;;;;;;10.80;8.23;;;11.00;99.90;;;;;;6225269;23;20048;-90
2021/05/11 01:32:11;;;;;;;9.75;8.15;;;11.00;99.90;;;;;;6229152;23;20047;-91
2021/05/11 02:18:29;;;;;;;20.13;14.95;;;11.20;99.90;;;;;;6215700;23;20052;-91
2021/05/11 02:23:40;;;;;;;19.92;15.25;;;11.10;99.90;;;;;;6215726;23;20376;-91
2021/05/11 02:26:07;;;;;;;19.08;15.50;;;11.10;99.90;;;;;;6215758;23;20020;-90
2021/05/11 02:28:33;;;;;;;22.33;16.73;;;11.10;99.90;;;;;;6216253;23;20020;-90
2021/05/11 02:31:00;;;;;;;21.48;16.48;;;11.00;99.90;;;;;;6215392;23;20027;-91
2021/05/11 02:33:27;;;;;;;24.42;17.52;;;11.00;99.90;;;;;;6215633;23;20016;-90
2021/05/11 02:35:53;;;;;;;23.55;17.48;;;11.00;99.90;;;;;;6213830;23;20055;-90
2021/05/11 02:38:20;;;;;;;28.98;18.67;;;11.00;99.90;;;;;;6215735;23;20148;-91
2021/05/11 02:40:46;;;;;;;32.72;20.75;;;11.00;99.90;;;;;;6215002;23;20087;-91
2021/05/11 02:43:17;;;;;;;32.67;20.30;;;11.00;99.90;;;;;;6215234;23;20035;-90
2021/05/11 02:45:43;;;;;;;32.85;20.98;;;11.00;99.90;;;;;;6167107;23;20024;-91
2021/05/11 02:48:10;;;;;;;37.13;21.70;;;10.90;99.90;;;;;;6215913;23;20036;-90
2021/05/11 02:50:39;;;;;;;39.30;22.48;;;10.90;99.90;;;;;;6215915;23;20100;-91
2021/05/11 02:53:06;;;;;;;34.33;20.83;;;10.80;99.90;;;;;;6215933;23;20016;-92
2021/05/11 02:55:32;;;;;;;35.85;21.02;;;10.80;99.90;;;;;;6215751;23;20052;-90
2021/05/11 02:57:59;;;;;;;32.72;20.27;;;10.80;99.90;;;;;;6189159;23;20039;-89
2021/05/11 03:00:27;;;;;;;30.73;18.08;;;10.70;99.90;;;;;;6214624;23;20553;-90
2021/05/11 03:02:57;;;;;;;26.83;16.75;;;10.70;99.90;;;;;;6214548;23;20032;-90
2021/05/11 03:05:24;;;;;;;30.85;17.92;;;10.70;99.90;;;;;;6214946;23;20470;-91
2021/05/11 03:07:52;;;;;;;29.52;17.23;;;10.60;99.90;;;;;;6214430;23;20107;-90
2021/05/11 03:10:19;;;;;;;31.30;17.58;;;10.60;99.90;;;;;;6215335;23;20025;-90
2021/05/11 03:12:49;;;;;;;28.73;15.93;;;10.60;99.90;;;;;;6213850;23;20017;-90
2021/05/11 03:15:18;;;;;;;29.08;17.00;;;10.50;99.90;;;;;;6215544;23;20063;-90
2021/05/11 03:17:44;;;;;;;28.48;17.58;;;10.50;99.90;;;;;;6215505;23;20051;-91
2021/05/11 03:20:12;;;;;;;30.83;17.13;;;10.40;99.90;;;;;;6215538;23;20447;-91
2021/05/11 03:22:41;;;;;;;33.33;18.40;;;10.40;99.90;;;;;;6215509;23;20099;-92
2021/05/11 03:25:09;;;;;;;36.25;19.90;;;10.40;99.90;;;;;;6215229;23;20020;-90
2021/05/11 03:27:36;;;;;;;33.03;19.20;;;10.40;99.90;;;;;;6217065;23;20035;-90
2021/05/11 03:30:04;;;;;;;33.83;18.63;;;10.40;99.90;;;;;;6219450;23;20025;-92
2021/05/11 03:32:31;;;;;;;43.92;24.77;;;10.40;99.90;;;;;;6218582;23;20111;-91
2021/05/11 03:34:57;;;;;;;36.50;20.67;;;10.40;99.90;;;;;;6218663;23;20436;-90
2021/05/11 03:37:24;;;;;;;36.97;21.40;;;10.50;99.90;;;;;;6214699;23;20049;-91
2021/05/11 03:39:51;;;;;;;36.75;21.40;;;10.50;99.90;;;;;;6215277;23;20115;-92
2021/05/11 03:42:31;;;;;;;34.75;20.75;;;10.50;99.90;;;;;;6214174;23;20020;-91
2021/05/11 03:45:01;;;;;;;34.35;19.77;;;10.50;99.90;;;;;;6213883;23;20391;-91
2021/05/11 03:47:35;;;;;;;36.15;20.65;;;10.50;99.90;;;;;;6214382;23;20024;-91
2021/05/11 03:50:03;;;;;;;31.40;18.83;;;10.50;99.90;;;;;;6213593;23;20025;-91
2021/05/11 03:52:30;;;;;;;31.95;19.27;;;10.50;99.90;;;;;;6214143;23;20446;-91
2021/05/11 03:54:58;;;;;;;28.77;17.92;;;10.50;99.90;;;;;;6215625;23;20086;-90
2021/05/11 03:57:25;;;;;;;27.63;17.73;;;10.50;99.90;;;;;;6214926;23;20021;-90
2021/05/11 03:59:53;;;;;;;25.70;16.73;;;10.50;99.90;;;;;;6214813;23;20024;-91
2021/05/11 04:02:19;;;;;;;27.20;17.88;;;10.40;99.90;;;;;;6215136;23;20067;-91
2021/05/11 04:04:47;;;;;;;26.85;17.27;;;10.50;99.90;;;;;;6214805;23;20378;-90
2021/05/11 04:07:15;;;;;;;29.42;18.25;;;10.50;99.90;;;;;;6213943;23;20433;-91
2021/05/11 04:09:55;;;;;;;28.35;18.20;;;10.60;99.90;;;;;;6215310;23;20338;-90
2021/05/11 04:17:54;;;;;;;38.08;21.70;;;10.80;99.90;;;;;;6214703;23;20024;-89
2021/05/11 04:20:21;;;;;;;41.63;22.45;;;10.90;99.90;;;;;;6211053;23;20420;-90
2021/05/11 04:22:48;;;;;;;44.80;23.42;;;10.90;99.90;;;;;;6211105;23;20031;-90
2021/05/11 04:25:15;;;;;;;46.22;24.25;;;10.90;99.90;;;;;;6211830;23;20035;-90
2021/05/11 04:27:42;;;;;;;46.53;25.02;;;11.00;99.90;;;;;;6212535;23;20059;-90
2021/05/11 04:30:10;;;;;;;44.80;24.25;;;11.00;99.90;;;;;;6210586;23;20024;-89
2021/05/11 04:32:39;;;;;;;47.35;24.75;;;11.10;99.90;;;;;;6212711;23;20054;-90
2021/05/11 04:35:08;;;;;;;48.85;25.38;;;11.10;99.90;;;;;;6212082;23;20119;-90
2021/05/11 04:37:34;;;;;;;52.90;24.45;;;11.10;99.90;;;;;;6186808;23;20024;-90
2021/05/11 04:40:08;;;;;;;51.72;25.15;;;11.20;99.90;;;;;;6210996;23;20016;-90
2021/05/11 04:45:48;;;;;;;42.90;23.15;;;11.20;99.90;;;;;;6174869;23;20017;-90
2021/05/11 04:48:17;;;;;;;50.88;24.23;;;11.30;99.90;;;;;;6212553;23;20067;-89
2021/05/11 04:50:44;;;;;;;47.28;23.50;;;11.40;99.90;;;;;;6187885;23;20048;-89
2021/05/11 04:53:11;;;;;;;47.70;24.60;;;11.40;99.90;;;;;;6213322;23;20040;-90
2021/05/11 04:55:40;;;;;;;43.97;23.73;;;11.40;99.90;;;;;;6212350;23;20021;-91
2021/05/11 04:58:06;;;;;;;43.63;22.75;;;11.40;99.90;;;;;;6214226;23;20024;-90
2021/05/11 05:00:33;;;;;;;41.47;21.75;;;11.50;99.90;;;;;;6213940;23;20143;-89
2021/05/11 05:03:03;;;;;;;43.53;24.10;;;11.50;99.90;;;;;;6213691;23;20028;-89
2021/05/11 05:05:32;;;;;;;40.78;21.83;;;11.60;99.90;;;;;;6213330;23;20021;-89
2021/05/11 05:07:59;;;;;;;36.85;20.65;;;11.60;99.90;;;;;;6212987;23;20035;-90
2021/05/11 05:10:26;;;;;;;35.80;20.88;;;11.70;99.90;;;;;;6213565;23;20036;-90
2021/05/11 05:12:54;;;;;;;34.28;20.05;;;11.80;99.90;;;;;;6213178;23;20111;-91
2021/05/11 05:15:21;;;;;;;37.50;21.73;;;11.80;99.90;;;;;;6214317;23;20503;-91
2021/05/11 05:17:47;;;;;;;37.20;19.80;;;11.90;99.90;;;;;;6212096;23;20021;-90
2021/05/11 05:20:14;;;;;;;33.80;19.98;;;11.80;99.90;;;;;;6212346;23;20385;-92
2021/05/11 05:22:42;;;;;;;29.63;18.35;;;12.00;99.90;;;;;;6213345;23;20056;-90
2021/05/11 05:25:16;;;;;;;30.50;19.70;;;12.00;99.90;;;;;;6212242;23;20116;-91
2021/05/11 05:27:47;;;;;;;31.25;18.42;;;12.00;99.90;;;;;;6210618;23;20048;-89
2021/05/11 05:30:15;;;;;;;26.80;17.92;;;12.00;99.90;;;;;;6212437;23;20099;-89
2021/05/11 05:32:42;;;;;;;29.45;18.27;;;12.00;99.90;;;;;;6212028;23;20083;-91
2021/05/11 05:35:09;;;;;;;28.00;17.35;;;12.10;99.90;;;;;;6212066;23;20055;-90
2021/05/11 05:37:41;;;;;;;26.05;16.92;;;12.00;99.90;;;;;;6214917;23;20016;-93
2021/05/11 05:40:10;;;;;;;26.45;16.92;;;12.10;99.90;;;;;;6213370;23;20393;-88
2021/05/11 05:42:46;;;;;;;22.05;15.27;;;12.10;99.90;;;;;;6213038;23;20120;-90
2021/05/11 05:45:15;;;;;;;24.88;16.77;;;12.20;99.90;;;;;;6213155;23;20029;-91
2021/05/11 05:47:51;;;;;;;26.38;17.27;;;12.30;99.90;;;;;;6212530;23;20028;-89
2021/05/11 05:50:27;;;;;;;24.73;17.58;;;12.30;99.90;;;;;;6210911;23;20091;-91
2021/05/11 05:53:03;;;;;;;23.05;16.05;;;12.20;99.90;;;;;;6213429;23;20020;-90
2021/05/11 05:55:32;;;;;;;25.60;18.50;;;12.20;99.90;;;;;;6212747;23;20038;-88
2021/05/11 05:58:04;;;;;;;;;;;12.20;99.90;;;;;;6225120;23;20028;-90
2021/05/11 06:00:31;;;;;;;28.75;18.50;;;12.10;99.90;;;;;;6226068;23;19916;-90
2021/05/11 06:03:19;;;;;;;28.65;18.05;;;12.20;99.90;;;;;;6214883;23;20424;-90
2021/05/11 06:05:46;;;;;;;28.30;19.83;;;12.20;99.90;;;;;;6213540;23;20083;-89
2021/05/11 06:08:13;;;;;;;28.30;18.05;;;12.20;99.90;;;;;;6214068;23;20031;-90
2021/05/11 06:10:40;;;;;;;27.00;17.63;;;12.30;99.90;;;;;;6213746;23;20092;-90
2021/05/11 06:13:15;;;;;;;31.20;20.90;;;12.40;99.90;;;;;;6212730;23;20147;-88
2021/05/11 06:18:29;;;;;;;36.47;23.58;;;12.60;99.90;;;;;;6221141;23;20328;-90
2021/05/11 06:21:01;;;;;;;29.63;20.23;;;12.70;99.90;;;;;;6225838;23;20101;-90
2021/05/11 06:23:28;;;;;;;29.25;19.50;;;12.80;99.90;;;;;;6227299;23;20035;-90
2021/05/11 06:25:57;;;;;;;28.63;18.63;;;12.90;99.90;;;;;;6223250;23;20020;-90
2021/05/11 06:32:32;;;;;;;27.95;18.38;;;13.00;99.90;;;;;;6087511;23;20046;-91
2021/05/11 06:35:24;;;;;;;28.25;18.35;;;13.00;99.90;;;;;;6147183;23;20047;-90
2021/05/11 06:38:39;;;;;;;;;;;;;;;;;;;;;
2021/05/11 06:41:14;;;;;;;29.27;18.45;;;13.00;99.90;;;;;;6212604;23;20495;-92
2021/05/11 06:43:51;;;;;;;27.13;17.92;;;13.10;99.90;;;;;;6212597;23;20024;-90
2021/05/11 06:55:25;;;;;;;23.85;16.50;;;13.50;99.90;;;;;;6196505;23;20017;-91
2021/05/11 06:58:24;;;;;;;25.05;18.00;;;13.50;99.90;;;;;;6186452;23;20020;-91
2021/05/11 07:01:08;;;;;;;25.17;17.20;;;13.40;99.90;;;;;;6057513;23;20041;-90
2021/05/11 07:31:40;;;;;;;17.75;13.10;;;13.50;99.90;;;;;;5976182;23;20046;-91
2021/05/11 07:34:09;;;;;;;20.38;15.50;;;13.50;99.90;;;;;;6060081;23;20029;-91
2021/05/11 07:36:36;;;;;;;20.40;15.15;;;13.60;99.90;;;;;;6126392;23;20032;-91
2021/05/11 07:39:05;;;;;;;19.92;15.00;;;13.60;99.90;;;;;;6181509;23;20464;-91
2021/05/11 07:41:34;;;;;;;20.65;13.43;;;13.80;99.90;;;;;;6181811;23;20036;-90
2021/05/11 07:44:02;;;;;;;18.30;14.23;;;14.10;99.90;;;;;;6181377;23;20017;-91
2021/05/11 08:05:35;;;;;;;17.85;14.63;;;14.50;99.90;;;;;;6184395;23;20032;-90
2021/05/11 08:14:23;;;;;;;18.95;14.52;;;14.40;99.90;;;;;;6183903;23;20024;-89
2021/05/11 08:16:25;;;;;;;16.38;12.98;;;14.60;99.90;;;;;;6215747;23;20624;-88
2021/05/11 08:19:17;;;;;;;17.65;13.35;;;15.00;99.90;;;;;;6221054;23;20035;-91
2021/05/11 08:28:01;;;;;;;15.10;13.00;;;15.30;99.90;;;;;;6220598;23;20020;-89
2021/05/11 08:29:56;;;;;;;13.45;11.73;;;15.50;99.90;;;;;;6205876;23;20078;-91
2021/05/11 08:32:23;;;;;;;12.52;10.38;;;15.70;99.90;;;;;;6215830;23;20031;-89
2021/05/11 08:34:52;;;;;;;10.85;9.75;;;15.80;99.90;;;;;;6215833;23;20059;-91
2021/05/11 08:37:20;;;;;;;11.40;9.45;;;16.10;99.90;;;;;;6215727;23;20048;-89
2021/05/11 08:39:47;;;;;;;12.45;11.15;;;16.40;99.90;;;;;;6214752;23;20040;-90
2021/05/11 08:42:14;;;;;;;12.10;10.55;;;16.80;99.90;;;;;;6219242;23;20072;-91
2021/05/11 08:44:43;;;;;;;10.68;9.10;;;17.10;99.90;;;;;;6221066;23;20119;-91
2021/05/11 08:47:11;;;;;;;9.02;8.13;;;17.50;99.90;;;;;;6219282;23;20091;-90
2021/05/11 08:49:56;;;;;;;8.65;7.72;;;17.80;99.90;;;;;;6225745;23;20032;-91
2021/05/11 09:06:44;;;;;;;6.70;6.00;;;17.40;99.90;;;;;;6226178;23;20044;-90
2021/05/11 09:14:08;;;;;;;7.20;6.05;;;17.30;99.90;;;;;;6213609;23;20020;-91
2021/05/11 09:15:49;;;;;;;7.20;6.25;;;17.70;99.90;;;;;;6214528;23;20031;-91
2021/05/11 09:26:59;;;;;;;4.88;4.25;;;18.90;99.90;;;;;;6212498;23;20059;-89
2021/05/11 10:45:07;;;;;;;4.78;4.28;;;19.40;97.80;;;;;;6213262;23;20062;-91
2021/05/11 10:47:36;;;;;;;5.15;4.65;;;19.80;95.80;;;;;;6214805;23;20016;-92
2021/05/11 10:50:45;;;;;;;5.97;5.13;;;19.90;92.10;;;;;;6213199;23;20021;-91
2021/05/11 10:54:07;;;;;;;9.50;4.70;;;19.80;96.60;;;;;;6214051;23;20016;-91
2021/05/11 10:59:57;;;;;;;5.03;4.53;;;19.70;95.70;;;;;;6206937;23;20020;-90
2021/05/11 11:03:41;;;;;;;8.13;6.43;;;19.70;93.70;;;;;;6212889;23;20021;-91
2021/05/11 11:07:01;;;;;;;7.10;5.00;;;19.90;91.90;;;;;;6172345;23;20016;-90
2021/05/11 11:17:10;;;;;;;5.68;4.90;;;21.10;90.10;;;;;;6200603;23;20400;-90
2021/05/11 11:26:25;;;;;;;8.32;6.25;;;23.00;72.00;;;;;;6119144;23;20018;-90
2021/05/11 11:29:31;;;;;;;6.40;5.78;;;23.40;68.90;;;;;;6122549;23;20014;-91
2021/05/11 11:35:12;;;;;;;12.50;7.88;;;23.70;68.30;;;;;;5919329;24;20025;-90
2021/05/11 11:46:22;;;;;;;6.90;6.15;;;25.40;59.40;;;;;;5895867;24;20108;-90
2021/05/11 11:49:12;;;;;;;9.45;5.63;;;25.20;57.40;;;;;;5854374;24;20036;-91
2021/05/11 11:51:39;;;;;;;8.13;6.22;;;24.60;58.90;;;;;;6062874;23;20014;-88
2021/05/11 11:54:29;;;;;;;7.10;6.40;;;23.90;61.80;;;;;;6150406;23;20694;-88
2021/05/11 11:59:53;;;;;;;6.78;4.80;;;22.10;67.90;;;;;;6150525;23;20053;-87
2021/05/11 12:02:20;;;;;;;9.80;6.13;;;21.50;73.60;;;;;;6152845;23;20088;-90
2021/05/11 12:04:48;;;;;;;5.60;4.60;;;21.20;74.90;;;;;;6154903;23;20049;-90
2021/05/11 12:07:17;;;;;;;8.40;5.20;;;21.10;74.70;;;;;;6206482;23;20029;-90
2021/05/11 12:09:47;;;;;;;7.78;4.70;;;20.80;79.90;;;;;;6212167;23;20067;-90
2021/05/11 12:12:17;;;;;;;6.75;4.05;;;20.40;84.50;;;;;;6213320;23;20059;-91
2021/05/11 12:14:44;;;;;;;4.53;3.60;;;20.00;88.30;;;;;;6213160;23;20021;-89
2021/05/11 12:17:12;;;;;;;5.03;3.53;;;19.80;90.80;;;;;;6212992;23;20416;-91
2021/05/11 12:19:44;;;;;;;4.68;3.40;;;19.70;93.20;;;;;;6212309;23;20020;-89
2021/05/11 12:22:17;;;;;;;4.07;2.85;;;19.70;92.40;;;;;;6218120;23;20020;-90
2021/05/11 12:24:48;;;;;;;3.05;2.75;;;19.80;92.20;;;;;;6216914;23;20048;-91
2021/05/11 12:27:22;;;;;;;4.00;2.60;;;19.70;95.00;;;;;;6223410;23;20013;-91
2021/05/11 12:30:08;;;;;;;4.13;2.00;;;19.90;92.70;;;;;;6217105;23;20024;-89
2021/05/11 12:32:37;;;;;;;3.95;1.88;;;19.90;91.00;;;;;;6215250;23;20470;-91
2021/05/11 12:35:10;;;;;;;3.50;1.88;;;19.90;92.20;;;;;;6211438;23;20112;-91
2021/05/11 12:37:44;;;;;;;3.35;2.00;;;19.70;94.10;;;;;;6212846;23;20017;-91
2021/05/11 12:40:27;;;;;;;2.50;1.60;;;19.80;92.30;;;;;;6212994;23;20025;-91
2021/05/11 12:43:00;;;;;;;2.45;1.33;;;19.80;92.60;;;;;;6211794;23;20368;-91
2021/05/11 12:45:29;;;;;;;2.38;1.30;;;20.00;92.70;;;;;;6213395;23;20328;-88
2021/05/11 12:48:01;;;;;;;1.33;1.00;;;20.10;94.10;;;;;;6212140;23;20020;-92
2021/05/11 12:50:44;;;;;;;3.72;1.20;;;20.10;94.90;;;;;;6212974;23;20497;-92
2021/05/11 12:53:34;;;;;;;1.13;1.00;;;19.80;95.80;;;;;;6212124;23;20028;-92
2021/05/11 13:27:41;;;;;;;4.70;2.50;;;16.40;99.90;;;;;;6214274;23;20090;-92
2021/05/11 13:30:06;;;;;;;2.78;2.58;;;16.20;99.90;;;;;;6192631;23;20017;-90
2021/05/11 13:35:06;;;;;;;4.53;3.72;;;15.70;99.90;;;;;;6213932;23;20154;-91
2021/05/11 13:37:38;;;;;;;5.13;4.70;;;15.50;99.90;;;;;;6211791;23;20012;-90
2021/05/11 13:40:20;;;;;;;6.45;5.28;;;15.20;99.90;;;;;;6211912;23;20013;-90
2021/05/11 13:42:53;;;;;;;7.25;6.63;;;15.00;99.90;;;;;;6211037;23;20020;-91
2021/05/11 13:45:21;;;;;;;7.95;7.15;;;14.80;99.90;;;;;;6213112;23;20090;-90
2021/05/11 13:48:06;;;;;;;8.52;7.78;;;14.60;99.90;;;;;;6212674;23;20090;-92
2021/05/11 13:53:12;;;;;;;11.35;9.95;;;14.30;99.90;;;;;;6181962;23;20056;-88
2021/05/11 14:04:25;;;;;;;14.50;12.45;;;14.10;99.90;;;;;;6181639;23;20096;-89
2021/05/11 14:07:04;;;;;;;15.65;13.68;;;14.10;99.90;;;;;;6182720;23;20108;-92
2021/05/11 14:09:35;;;;;;;15.50;13.95;;;14.10;99.90;;;;;;6181849;23;20113;-89
2021/05/11 14:12:11;;;;;;;13.50;12.20;;;14.00;99.90;;;;;;6182897;23;20037;-88
2021/05/11 14:14:54;;;;;;;13.30;12.07;;;13.90;99.90;;;;;;6182603;23;20021;-90
2021/05/11 14:17:56;;;;;;;11.95;10.82;;;13.90;99.90;;;;;;6170188;23;20032;-91
2021/05/11 14:20:29;;;;;;;11.10;9.98;;;13.80;99.90;;;;;;6181096;23;20025;-90
2021/05/11 14:22:58;;;;;;;10.55;9.50;;;13.60;99.90;;;;;;6182669;23;20076;-90
2021/05/11 14:25:32;;;;;;;11.13;9.95;;;13.50;99.90;;;;;;6182560;23;20041;-92
2021/05/11 14:27:59;;;;;;;11.73;10.63;;;13.30;99.90;;;;;;6183198;23;20397;-91
2021/05/11 14:30:33;;;;;;;11.65;10.20;;;13.40;99.90;;;;;;6205024;23;20132;-91
2021/05/11 14:33:00;;;;;;;12.10;10.02;;;13.40;99.90;;;;;;6183442;23;20388;-91
2021/05/11 14:35:32;;;;;;;11.05;8.30;;;13.40;99.90;;;;;;6158152;23;20031;-91
2021/05/11 14:38:02;;;;;;;9.75;8.43;;;13.40;99.90;;;;;;6183325;23;20036;-90
2021/05/11 14:40:31;;;;;;;6.80;5.80;;;13.40;99.90;;;;;;6209181;23;20108;-93
2021/05/11 14:43:01;;;;;;;7.40;6.15;;;13.30;99.90;;;;;;6184247;23;20017;-90
2021/05/11 14:45:30;;;;;;;7.22;5.60;;;13.30;99.90;;;;;;6184017;23;20021;-91
2021/05/11 14:48:05;;;;;;;5.93;5.38;;;13.20;99.90;;;;;;6188387;23;20139;-92
2021/05/11 14:50:40;;;;;;;6.65;5.65;;;13.10;99.90;;;;;;6205077;23;20104;-90
2021/05/11 14:53:10;;;;;;;8.18;5.30;;;13.00;99.90;;;;;;6184276;23;20076;-92
2021/05/11 14:55:37;;;;;;;7.30;6.60;;;12.90;99.90;;;;;;6186392;23;20152;-91
2021/05/11 14:58:08;;;;;;;9.57;8.23;;;12.90;99.90;;;;;;6184884;23;20087;-91
2021/05/11 15:00:36;;;;;;;9.80;8.80;;;12.80;99.90;;;;;;6193894;23;20029;-91
2021/05/11 15:03:06;;;;;;;11.75;9.60;;;12.70;99.90;;;;;;6186613;23;20013;-90
2021/05/11 15:05:33;;;;;;;12.43;10.75;;;12.60;99.90;;;;;;6191061;23;20025;-92
2021/05/11 15:08:01;;;;;;;15.50;10.50;;;12.60;99.90;;;;;;6183756;23;20250;-90
2021/05/11 15:10:28;;;;;;;13.88;10.77;;;12.50;99.90;;;;;;6161165;23;20037;-91
2021/05/11 15:12:55;;;;;;;12.13;10.63;;;12.50;99.90;;;;;;6183441;23;20025;-90
2021/05/11 15:15:22;;;;;;;8.65;7.75;;;12.40;99.90;;;;;;6188941;23;20054;-91
2021/05/11 15:20:25;;;;;;;7.25;6.55;;;12.40;99.90;;;;;;6186351;23;20021;-89
2021/05/11 15:23:06;;;;;;;6.30;5.70;;;12.40;99.90;;;;;;6185595;23;20087;-90
2021/05/11 15:25:34;;;;;;;7.05;5.35;;;12.40;99.90;;;;;;6189664;23;20104;-90
2021/05/11 15:31:33;;;;;;;5.55;2.88;;;12.30;99.90;;;;;;6187970;23;20359;-90
2021/05/11 15:34:00;;;;;;;3.22;2.53;;;12.20;99.90;;;;;;6186497;23;20095;-88
2021/05/11 15:36:36;;;;;;;5.57;2.80;;;12.10;99.90;;;;;;6181069;23;20048;-89
2021/05/11 15:39:06;;;;;;;3.05;2.53;;;12.00;99.90;;;;;;6182466;23;20551;-89
2021/05/11 15:41:35;;;;;;;4.55;3.00;;;11.90;99.90;;;;;;6184690;23;20041;-90
2021/05/11 15:44:03;;;;;;;7.20;3.38;;;11.90;99.90;;;;;;6182514;23;20044;-88
2021/05/11 15:46:30;;;;;;;5.95;2.90;;;11.90;99.90;;;;;;6154247;23;20025;-90
2021/05/11 15:48:57;;;;;;;4.32;2.80;;;11.90;99.90;;;;;;6205596;23;20017;-88
2021/05/11 15:51:25;;;;;;;4.93;3.47;;;11.90;99.90;;;;;;6178739;23;20612;-88
2021/05/11 15:54:00;;;;;;;4.97;3.10;;;11.90;99.90;;;;;;6180475;23;20025;-88
2021/05/11 15:56:27;;;;;;;6.93;3.08;;;11.80;99.90;;;;;;6179620;23;20026;-88
2021/05/11 15:58:54;;;;;;;4.85;3.00;;;11.80;99.90;;;;;;6181324;23;20077;-88
2021/05/11 16:01:23;;;;;;;3.05;2.38;;;11.80;99.90;;;;;;6180014;23;20087;-88
2021/05/11 16:03:52;;;;;;;3.05;2.33;;;11.70;99.90;;;;;;6178938;23;20052;-87
2021/05/11 16:06:19;;;;;;;4.65;2.72;;;11.70;99.90;;;;;;6180103;23;20043;-85
2021/05/11 16:08:46;;;;;;;3.45;2.40;;;11.70;99.90;;;;;;6155791;23;20025;-86
2021/05/11 16:11:14;;;;;;;5.22;2.78;;;11.70;99.90;;;;;;6185380;23;20025;-86
2021/05/11 16:13:44;;;;;;;5.95;2.72;;;11.60;99.90;;;;;;6182740;23;20025;-86
2021/05/11 16:16:11;;;;;;;4.13;2.72;;;11.60;99.90;;;;;;6182727;23;20292;-85
2021/05/11 16:18:39;;;;;;;4.07;2.90;;;11.60;99.90;;;;;;6183539;23;20068;-86
2021/05/11 16:21:06;;;;;;;5.72;2.78;;;11.60;99.90;;;;;;6183863;23;20021;-86
2021/05/11 16:23:36;;;;;;;4.45;2.30;;;11.60;99.90;;;;;;6183609;23;20017;-86
2021/05/11 16:26:06;;;;;;;3.25;2.50;;;11.60;99.90;;;;;;6183855;23;20020;-86
2021/05/11 16:28:35;;;;;;;4.47;2.40;;;11.60;99.90;;;;;;6182752;23;20029;-86
2021/05/11 16:31:03;;;;;;;2.40;2.20;;;11.60;99.90;;;;;;6183180;23;20055;-85
2021/05/11 16:33:30;;;;;;;4.30;2.42;;;11.50;99.90;;;;;;6182252;23;20087;-87
2021/05/11 16:35:57;;;;;;;2.47;2.20;;;11.50;99.90;;;;;;6183216;23;20025;-86
2021/05/11 16:38:24;;;;;;;3.13;2.38;;;11.50;99.90;;;;;;6183805;23;20033;-86
2021/05/11 16:40:51;;;;;;;2.50;2.30;;;11.50;99.90;;;;;;6183087;23;20031;-86
2021/05/11 16:43:22;;;;;;;3.60;2.40;;;11.40;99.90;;;;;;6183502;23;20021;-87
2021/05/11 16:45:50;;;;;;;4.95;2.40;;;11.40;99.90;;;;;;6183107;23;20393;-87
2021/05/11 16:48:17;;;;;;;5.65;2.80;;;11.40;99.90;;;;;;6183891;23;20036;-86
2021/05/11 16:50:44;;;;;;;2.85;2.20;;;11.40;99.90;;;;;;6184474;23;20025;-87
2021/05/11 16:53:13;;;;;;;3.83;2.03;;;11.30;99.90;;;;;;6182707;23;20091;-90
2021/05/11 16:55:43;;;;;;;5.93;3.22;;;11.30;99.90;;;;;;6157734;23;20025;-89
2021/05/11 16:58:12;;;;;;;4.03;2.80;;;11.20;99.90;;;;;;6183175;23;20416;-89
2021/05/11 17:00:40;;;;;;;3.22;2.90;;;11.30;99.90;;;;;;6183090;23;20087;-92
2021/05/11 17:03:10;;;;;;;6.07;3.22;;;11.20;99.90;;;;;;6183589;23;20021;-90
2021/05/11 17:05:39;;;;;;;7.45;4.70;;;11.30;99.90;;;;;;6183376;23;20087;-91
2021/05/11 17:08:11;;;;;;;10.93;5.18;;;11.30;99.90;;;;;;6181827;23;20087;-86
2021/05/11 17:10:40;;;;;;;5.30;4.80;;;11.30;99.90;;;;;;6184091;23;20021;-88
2021/05/11 17:13:10;;;;;;;6.68;5.55;;;11.30;99.90;;;;;;6183873;23;20381;-89
2021/05/11 17:15:42;;;;;;;6.97;6.00;;;11.30;99.90;;;;;;6182010;23;20024;-88
2021/05/11 17:18:10;;;;;;;9.40;7.22;;;11.30;99.90;;;;;;6183434;23;20301;-88
2021/05/11 17:20:38;;;;;;;10.93;8.65;;;11.30;99.90;;;;;;6184534;23;20056;-87
2021/05/11 17:23:05;;;;;;;9.27;6.65;;;11.30;99.90;;;;;;6184421;23;20025;-87
2021/05/11 17:25:32;;;;;;;8.35;6.35;;;11.30;99.90;;;;;;6184299;23;20095;-88
2021/05/11 17:28:01;;;;;;;8.80;6.25;;;11.30;99.90;;;;;;6183730;23;20499;-87
2021/05/11 17:30:30;;;;;;;7.55;5.82;;;11.20;99.90;;;;;;6183626;23;20413;-87
2021/05/11 17:32:57;;;;;;;7.32;5.18;;;11.30;99.90;;;;;;6184246;23;20036;-88
2021/05/11 17:35:24;;;;;;;7.45;5.60;;;11.20;99.90;;;;;;6182609;23;20721;-87
2021/05/11 17:37:53;;;;;;;9.73;5.22;;;11.20;99.90;;;;;;6184008;23;20020;-88
2021/05/11 17:40:22;;;;;;;8.98;5.65;;;11.20;99.90;;;;;;6184124;23;20025;-88
2021/05/11 17:42:55;;;;;;;10.25;6.18;;;11.20;99.90;;;;;;6184299;23;20017;-88
2021/05/11 17:45:23;;;;;;;9.63;6.13;;;11.20;99.90;;;;;;6182296;23;20029;-89
2021/05/11 17:47:58;;;;;;;9.55;5.72;;;11.20;99.90;;;;;;6184222;23;20052;-90
2021/05/11 17:50:34;;;;;;;7.40;6.00;;;11.10;99.90;;;;;;6182137;23;20029;-89
2021/05/11 17:53:02;;;;;;;10.05;5.30;;;11.10;99.90;;;;;;6183535;23;20021;-87
2021/05/11 17:55:32;;;;;;;6.82;4.80;;;11.10;99.90;;;;;;6183799;23;20071;-88
2021/05/11 17:58:00;;;;;;;7.55;4.80;;;11.10;99.90;;;;;;6182677;23;20028;-88
2021/05/11 18:00:28;;;;;;;5.30;4.80;;;11.10;99.90;;;;;;6182938;23;20031;-88
2021/05/11 18:02:58;;;;;;;8.18;4.75;;;11.00;99.90;;;;;;6183512;23;20029;-88
2021/05/11 18:05:26;;;;;;;5.90;4.88;;;11.00;99.90;;;;;;6182269;23;20479;-87
2021/05/11 18:07:57;;;;;;;7.68;5.22;;;11.00;99.90;;;;;;6183778;23;20083;-87
2021/05/11 18:10:24;;;;;;;8.32;4.85;;;11.00;99.90;;;;;;6182971;23;20040;-88
2021/05/11 18:12:51;;;;;;;5.15;4.40;;;11.00;99.90;;;;;;6183305;23;20024;-89
2021/05/11 18:15:18;;;;;;;6.72;4.90;;;11.00;99.90;;;;;;6183420;23;20075;-88